Henry T — WDC3903 — position and weather

sailwx.info

Track history (hours):
 
Tides and Currents Weather Stations Pressure Air Temp Water Temp Dewpoint Dewpoint Depression Visibility Wind Speed Wind Dir Waves Ship Positions

Henry T

Owner: T & T MARINE INC., Galveston, TX. More information available from US FCC via Universal Licensing System and Coast Guard Vessel Documentation Center.

Last reported at 2018-Feb-20 06:56 UTC. Time now 2018-Feb-25 10:16 UTC.
Position N 29°19' W 094°48'.

Length 15 m; draft 2 m.

Type: Towing. MMSI: 367016010.

Date/timePositionNaut miles runAvg speedWind from/ knotsBaromVisibWave heightAir tempDewpointWater temp
2018-Feb-20 06:56N 29°19' W 094°48'1 0.1
2018-Feb-20 02:54N 29°19' W 094°48'5 5.2
2018-Feb-20 01:59N 29°23' W 094°49'3 5.2
2018-Feb-20 01:28N 29°26' W 094°50'3 6.2
2018-Feb-20 01:00N 29°28' W 094°51'3 6.2
2018-Feb-20 00:31N 29°31' W 094°53'3 6.5
2018-Feb-20 00:00N 29°34' W 094°55'3 6.0
2018-Feb-19 23:30N 29°36' W 094°57'3 6.6
2018-Feb-19 23:01N 29°39' W 094°58'3 5.8
2018-Feb-19 22:31N 29°42' W 095°00'7 3.3
2018-Feb-19 20:30N 29°46' W 095°06'0 0.0
2018-Feb-19 15:25N 29°46' W 095°06'0 0.0
2018-Feb-19 14:54N 29°46' W 095°06'0 0.0
2018-Feb-19 14:30N 29°46' W 095°06'0 0.0
2018-Feb-19 14:00N 29°46' W 095°06'0 0.0
2018-Feb-19 13:30N 29°46' W 095°06'0 0.0
2018-Feb-19 10:15N 29°46' W 095°06'0 0.0
2018-Feb-19 09:48N 29°46' W 095°06'0 0.0
2018-Feb-19 09:29N 29°46' W 095°06'0 0.0
2018-Feb-19 08:59N 29°46' W 095°06'0 0.0
2018-Feb-19 08:30N 29°46' W 095°06'0 0.0
2018-Feb-19 08:01N 29°46' W 095°06'0 0.0
2018-Feb-19 07:30N 29°46' W 095°06'0 0.0
2018-Feb-19 06:59N 29°46' W 095°06'0 0.0
2018-Feb-19 06:14N 29°46' W 095°06'0 0.0
2018-Feb-19 06:00N 29°46' W 095°06'0 0.0
2018-Feb-19 05:31N 29°46' W 095°06'0 0.0
2018-Feb-18 17:01N 29°46' W 095°06'0 0.2
2018-Feb-18 16:32N 29°46' W 095°06'0 0.0
2018-Feb-18 16:28N 29°46' W 095°06'0 0.1
2018-Feb-18 15:55N 29°46' W 095°06'0 0.0
2018-Feb-18 15:30N 29°46' W 095°06'0 0.0
2018-Feb-18 14:58N 29°46' W 095°06'0 0.0
2018-Feb-18 14:30N 29°46' W 095°06'0 0.0
2018-Feb-18 13:51N 29°46' W 095°06'0 0.0
2018-Feb-18 13:24N 29°46' W 095°06'0 0.0
2018-Feb-18 12:59N 29°46' W 095°06'0 0.0
2018-Feb-18 12:30N 29°46' W 095°06'0 0.0
2018-Feb-18 12:00N 29°46' W 095°06'0 0.0
2018-Feb-18 11:30N 29°46' W 095°06'0 0.0
2018-Feb-18 11:00N 29°46' W 095°06'0 0.0
2018-Feb-18 10:29N 29°46' W 095°06'0 0.0
2018-Feb-18 10:00N 29°46' W 095°06'0 0.0
2018-Feb-18 09:30N 29°46' W 095°06'0 0.0
2018-Feb-18 08:59N 29°46' W 095°06'0 0.0
2018-Feb-18 08:30N 29°46' W 095°06'0 0.0
2018-Feb-18 07:58N 29°46' W 095°06'0 0.0
2018-Feb-18 07:29N 29°46' W 095°06'0 0.0
2018-Feb-18 07:00N 29°46' W 095°06'0 0.0
2018-Feb-18 06:29N 29°46' W 095°06'0 0.0
2018-Feb-18 06:00N 29°46' W 095°06'0 0.0
2018-Feb-18 05:28N 29°46' W 095°06'0 0.0
2018-Feb-18 04:59N 29°46' W 095°06'0 0.0
2018-Feb-18 04:30N 29°46' W 095°06'0 0.0
2018-Feb-18 04:00N 29°46' W 095°06'0 0.0
2018-Feb-18 03:28N 29°46' W 095°06'0 0.0
2018-Feb-18 03:01N 29°46' W 095°06'0 0.0
2018-Feb-18 02:30N 29°46' W 095°06'0 0.0
2018-Feb-18 02:00N 29°46' W 095°06'0 0.0
2018-Feb-18 01:29N 29°46' W 095°06'0 0.0
2018-Feb-18 00:59N 29°46' W 095°06'0 0.0
2018-Feb-18 00:30N 29°46' W 095°06'0 0.0
2018-Feb-17 23:59N 29°46' W 095°06'0 0.1
2018-Feb-17 23:29N 29°46' W 095°06'2 3.6
2018-Feb-17 22:57N 29°46' W 095°04'3 5.3
2018-Feb-17 22:27N 29°44' W 095°02'2 4.8
2018-Feb-17 22:00N 29°42' W 095°00'2 4.9
2018-Feb-17 21:31N 29°40' W 094°59'3 5.6
2018-Feb-17 21:01N 29°38' W 094°58'3 5.9
2018-Feb-17 20:30N 29°35' W 094°56'3 5.8
2018-Feb-17 20:00N 29°33' W 094°54'15 1.4
2018-Feb-17 09:38N 29°19' W 094°48'0 0.0
2018-Feb-17 08:39N 29°19' W 094°48'0 0.0
2018-Feb-17 08:23N 29°19' W 094°48'0 0.0
2018-Feb-17 07:53N 29°19' W 094°48'0 0.0
2018-Feb-17 07:23N 29°19' W 094°48'0 0.0
2018-Feb-17 06:33N 29°19' W 094°48'0 0.0
2018-Feb-17 06:13N 29°19' W 094°48'0 0.0
2018-Feb-17 05:55N 29°19' W 094°48'0 0.0
2018-Feb-17 05:18N 29°19' W 094°48'0 0.0
2018-Feb-17 04:50N 29°19' W 094°48'0 0.0
2018-Feb-17 04:30N 29°19' W 094°48'0 0.0
2018-Feb-17 03:58N 29°19' W 094°48'0 0.0
2018-Feb-17 03:26N 29°19' W 094°48'0 0.0
2018-Feb-17 02:58N 29°19' W 094°48'0 0.0
2018-Feb-17 02:30N 29°19' W 094°48'0 0.0
2018-Feb-17 01:57N 29°19' W 094°48'0 0.0
2018-Feb-17 01:28N 29°19' W 094°48'0 0.0
2018-Feb-17 01:00N 29°19' W 094°48'0 0.0
2018-Feb-17 00:20N 29°19' W 094°48'0 0.0
2018-Feb-16 23:51N 29°19' W 094°48'0 0.0
2018-Feb-16 23:14N 29°19' W 094°48'0 0.0
2018-Feb-16 22:58N 29°19' W 094°48'0 0.0
2018-Feb-16 08:11N 29°19' W 094°48'0 0.0
2018-Feb-16 07:55N 29°19' W 094°48'0 0.0
2018-Feb-16 06:56N 29°19' W 094°48'0 0.0
2018-Feb-16 06:30N 29°19' W 094°48'0 0.0
2018-Feb-16 06:00N 29°19' W 094°48'0 0.0
2018-Feb-16 05:29N 29°19' W 094°48'0 0.0
2018-Feb-16 05:00N 29°19' W 094°48'0 0.0
2018-Feb-16 04:13N 29°19' W 094°48'0 0.0
2018-Feb-16 03:58N 29°19' W 094°48'0 0.0
2018-Feb-16 03:27N 29°19' W 094°48'0 0.0
2018-Feb-16 02:54N 29°19' W 094°48'0 0.0
2018-Feb-16 02:20N 29°19' W 094°48'0 0.0
2018-Feb-16 01:59N 29°19' W 094°48'0 0.0
2018-Feb-16 01:29N 29°19' W 094°48'0 0.0
2018-Feb-16 01:00N 29°19' W 094°48'0 0.0
2018-Feb-16 00:22N 29°19' W 094°48'0 0.0
2018-Feb-16 00:00N 29°19' W 094°48'0 0.0
2018-Feb-15 23:29N 29°19' W 094°48'0 0.0
2018-Feb-15 22:07N 29°19' W 094°48'0 0.0
2018-Feb-15 21:54N 29°19' W 094°48'0 0.0
2018-Feb-15 20:56N 29°19' W 094°48'0 0.0
2018-Feb-15 20:27N 29°19' W 094°48'0 0.0
2018-Feb-15 08:42N 29°19' W 094°48'0 0.0
2018-Feb-15 06:17N 29°19' W 094°48'0 0.0
2018-Feb-15 05:59N 29°19' W 094°48'0 0.0
2018-Feb-15 05:14N 29°19' W 094°48'0 0.0
2018-Feb-15 04:58N 29°19' W 094°48'0 0.0
2018-Feb-15 04:26N 29°19' W 094°48'0 0.0
2018-Feb-15 03:57N 29°19' W 094°48'0 0.0
2018-Feb-15 03:30N 29°19' W 094°48'0 0.1
2018-Feb-14 21:08N 29°19' W 094°48'0 0.4
2018-Feb-14 20:46N 29°19' W 094°48'0 0.0
2018-Feb-14 20:30N 29°19' W 094°48'0 0.0
2018-Feb-14 19:56N 29°19' W 094°48'0 0.8
2018-Feb-14 19:28N 29°19' W 094°47'0 0.0
2018-Feb-14 18:39N 29°19' W 094°47'0 0.0
2018-Feb-14 18:30N 29°19' W 094°47'0 0.7
2018-Feb-14 17:59N 29°19' W 094°48'0 0.0
2018-Feb-14 17:30N 29°19' W 094°48'0 0.7
2018-Feb-14 16:48N 29°19' W 094°48'0 0.0
2018-Feb-14 16:20N 29°19' W 094°48'0 0.0
2018-Feb-14 15:58N 29°19' W 094°48'0 0.0
2018-Feb-14 15:29N 29°19' W 094°48'0 0.0
2018-Feb-14 14:58N 29°19' W 094°48'0 0.0
2018-Feb-14 14:30N 29°19' W 094°48'0 0.0
2018-Feb-14 13:40N 29°19' W 094°48'0 0.1
2018-Feb-14 13:19N 29°19' W 094°48'0 0.0
2018-Feb-14 13:00N 29°19' W 094°48'0 0.0
2018-Feb-14 12:09N 29°19' W 094°48'  
Track history (hours):
 
Tides and Currents Weather Stations Pressure Air Temp Water Temp Dewpoint Dewpoint Depression Visibility Wind Speed Wind Dir Waves Ship Positions

Henry T

Owner: T & T MARINE INC., Galveston, TX. More information available from US FCC via Universal Licensing System and Coast Guard Vessel Documentation Center.

Last reported at 2018-Feb-20 06:56 UTC. Time now 2018-Feb-25 10:16 UTC.
Position N 29°19' W 094°48'.

Length 15 m; draft 2 m.

Type: Towing. MMSI: 367016010.

Date/timePositionNaut miles runAvg speedWind from/ knotsBaromVisibWave heightAir tempDewpointWater temp
2018-Feb-20 06:56N 29°19' W 094°48'1 0.1
2018-Feb-20 02:54N 29°19' W 094°48'5 5.2
2018-Feb-20 01:59N 29°23' W 094°49'3 5.2
2018-Feb-20 01:28N 29°26' W 094°50'3 6.2
2018-Feb-20 01:00N 29°28' W 094°51'3 6.2
2018-Feb-20 00:31N 29°31' W 094°53'3 6.5
2018-Feb-20 00:00N 29°34' W 094°55'3 6.0
2018-Feb-19 23:30N 29°36' W 094°57'3 6.6
2018-Feb-19 23:01N 29°39' W 094°58'3 5.8
2018-Feb-19 22:31N 29°42' W 095°00'7 3.3
2018-Feb-19 20:30N 29°46' W 095°06'0 0.0
2018-Feb-19 15:25N 29°46' W 095°06'0 0.0
2018-Feb-19 14:54N 29°46' W 095°06'0 0.0
2018-Feb-19 14:30N 29°46' W 095°06'0 0.0
2018-Feb-19 14:00N 29°46' W 095°06'0 0.0
2018-Feb-19 13:30N 29°46' W 095°06'0 0.0
2018-Feb-19 10:15N 29°46' W 095°06'0 0.0
2018-Feb-19 09:48N 29°46' W 095°06'0 0.0
2018-Feb-19 09:29N 29°46' W 095°06'0 0.0
2018-Feb-19 08:59N 29°46' W 095°06'0 0.0
2018-Feb-19 08:30N 29°46' W 095°06'0 0.0
2018-Feb-19 08:01N 29°46' W 095°06'0 0.0
2018-Feb-19 07:30N 29°46' W 095°06'0 0.0
2018-Feb-19 06:59N 29°46' W 095°06'0 0.0
2018-Feb-19 06:14N 29°46' W 095°06'0 0.0
2018-Feb-19 06:00N 29°46' W 095°06'0 0.0
2018-Feb-19 05:31N 29°46' W 095°06'0 0.0
2018-Feb-18 17:01N 29°46' W 095°06'0 0.2
2018-Feb-18 16:32N 29°46' W 095°06'0 0.0
2018-Feb-18 16:28N 29°46' W 095°06'0 0.1
2018-Feb-18 15:55N 29°46' W 095°06'0 0.0
2018-Feb-18 15:30N 29°46' W 095°06'0 0.0
2018-Feb-18 14:58N 29°46' W 095°06'0 0.0
2018-Feb-18 14:30N 29°46' W 095°06'0 0.0
2018-Feb-18 13:51N 29°46' W 095°06'0 0.0
2018-Feb-18 13:24N 29°46' W 095°06'0 0.0
2018-Feb-18 12:59N 29°46' W 095°06'0 0.0
2018-Feb-18 12:30N 29°46' W 095°06'0 0.0
2018-Feb-18 12:00N 29°46' W 095°06'0 0.0
2018-Feb-18 11:30N 29°46' W 095°06'0 0.0
2018-Feb-18 11:00N 29°46' W 095°06'0 0.0
2018-Feb-18 10:29N 29°46' W 095°06'0 0.0
2018-Feb-18 10:00N 29°46' W 095°06'0 0.0
2018-Feb-18 09:30N 29°46' W 095°06'0 0.0
2018-Feb-18 08:59N 29°46' W 095°06'0 0.0
2018-Feb-18 08:30N 29°46' W 095°06'0 0.0
2018-Feb-18 07:58N 29°46' W 095°06'0 0.0
2018-Feb-18 07:29N 29°46' W 095°06'0 0.0
2018-Feb-18 07:00N 29°46' W 095°06'0 0.0
2018-Feb-18 06:29N 29°46' W 095°06'0 0.0
2018-Feb-18 06:00N 29°46' W 095°06'0 0.0
2018-Feb-18 05:28N 29°46' W 095°06'0 0.0
2018-Feb-18 04:59N 29°46' W 095°06'0 0.0
2018-Feb-18 04:30N 29°46' W 095°06'0 0.0
2018-Feb-18 04:00N 29°46' W 095°06'0 0.0
2018-Feb-18 03:28N 29°46' W 095°06'0 0.0
2018-Feb-18 03:01N 29°46' W 095°06'0 0.0
2018-Feb-18 02:30N 29°46' W 095°06'0 0.0
2018-Feb-18 02:00N 29°46' W 095°06'0 0.0
2018-Feb-18 01:29N 29°46' W 095°06'0 0.0
2018-Feb-18 00:59N 29°46' W 095°06'0 0.0
2018-Feb-18 00:30N 29°46' W 095°06'0 0.0
2018-Feb-17 23:59N 29°46' W 095°06'0 0.1
2018-Feb-17 23:29N 29°46' W 095°06'2 3.6
2018-Feb-17 22:57N 29°46' W 095°04'3 5.3
2018-Feb-17 22:27N 29°44' W 095°02'2 4.8
2018-Feb-17 22:00N 29°42' W 095°00'2 4.9
2018-Feb-17 21:31N 29°40' W 094°59'3 5.6
2018-Feb-17 21:01N 29°38' W 094°58'3 5.9
2018-Feb-17 20:30N 29°35' W 094°56'3 5.8
2018-Feb-17 20:00N 29°33' W 094°54'15 1.4
2018-Feb-17 09:38N 29°19' W 094°48'0 0.0
2018-Feb-17 08:39N 29°19' W 094°48'0 0.0
2018-Feb-17 08:23N 29°19' W 094°48'0 0.0
2018-Feb-17 07:53N 29°19' W 094°48'0 0.0
2018-Feb-17 07:23N 29°19' W 094°48'0 0.0
2018-Feb-17 06:33N 29°19' W 094°48'0 0.0
2018-Feb-17 06:13N 29°19' W 094°48'0 0.0
2018-Feb-17 05:55N 29°19' W 094°48'0 0.0
2018-Feb-17 05:18N 29°19' W 094°48'0 0.0
2018-Feb-17 04:50N 29°19' W 094°48'0 0.0
2018-Feb-17 04:30N 29°19' W 094°48'0 0.0
2018-Feb-17 03:58N 29°19' W 094°48'0 0.0
2018-Feb-17 03:26N 29°19' W 094°48'0 0.0
2018-Feb-17 02:58N 29°19' W 094°48'0 0.0
2018-Feb-17 02:30N 29°19' W 094°48'0 0.0
2018-Feb-17 01:57N 29°19' W 094°48'0 0.0
2018-Feb-17 01:28N 29°19' W 094°48'0 0.0
2018-Feb-17 01:00N 29°19' W 094°48'0 0.0
2018-Feb-17 00:20N 29°19' W 094°48'0 0.0
2018-Feb-16 23:51N 29°19' W 094°48'0 0.0
2018-Feb-16 23:14N 29°19' W 094°48'0 0.0
2018-Feb-16 22:58N 29°19' W 094°48'0 0.0
2018-Feb-16 08:11N 29°19' W 094°48'0 0.0
2018-Feb-16 07:55N 29°19' W 094°48'0 0.0
2018-Feb-16 06:56N 29°19' W 094°48'0 0.0
2018-Feb-16 06:30N 29°19' W 094°48'0 0.0
2018-Feb-16 06:00N 29°19' W 094°48'0 0.0
2018-Feb-16 05:29N 29°19' W 094°48'0 0.0
2018-Feb-16 05:00N 29°19' W 094°48'0 0.0
2018-Feb-16 04:13N 29°19' W 094°48'0 0.0
2018-Feb-16 03:58N 29°19' W 094°48'0 0.0
2018-Feb-16 03:27N 29°19' W 094°48'0 0.0
2018-Feb-16 02:54N 29°19' W 094°48'0 0.0
2018-Feb-16 02:20N 29°19' W 094°48'0 0.0
2018-Feb-16 01:59N 29°19' W 094°48'0 0.0
2018-Feb-16 01:29N 29°19' W 094°48'0 0.0
2018-Feb-16 01:00N 29°19' W 094°48'0 0.0
2018-Feb-16 00:22N 29°19' W 094°48'0 0.0
2018-Feb-16 00:00N 29°19' W 094°48'0 0.0
2018-Feb-15 23:29N 29°19' W 094°48'0 0.0
2018-Feb-15 22:07N 29°19' W 094°48'0 0.0
2018-Feb-15 21:54N 29°19' W 094°48'0 0.0
2018-Feb-15 20:56N 29°19' W 094°48'0 0.0
2018-Feb-15 20:27N 29°19' W 094°48'0 0.0
2018-Feb-15 08:42N 29°19' W 094°48'0 0.0
2018-Feb-15 06:17N 29°19' W 094°48'0 0.0
2018-Feb-15 05:59N 29°19' W 094°48'0 0.0
2018-Feb-15 05:14N 29°19' W 094°48'0 0.0
2018-Feb-15 04:58N 29°19' W 094°48'0 0.0
2018-Feb-15 04:26N 29°19' W 094°48'0 0.0
2018-Feb-15 03:57N 29°19' W 094°48'0 0.0
2018-Feb-15 03:30N 29°19' W 094°48'0 0.1
2018-Feb-14 21:08N 29°19' W 094°48'0 0.4
2018-Feb-14 20:46N 29°19' W 094°48'0 0.0
2018-Feb-14 20:30N 29°19' W 094°48'0 0.0
2018-Feb-14 19:56N 29°19' W 094°48'0 0.8
2018-Feb-14 19:28N 29°19' W 094°47'0 0.0
2018-Feb-14 18:39N 29°19' W 094°47'0 0.0
2018-Feb-14 18:30N 29°19' W 094°47'0 0.7
2018-Feb-14 17:59N 29°19' W 094°48'0 0.0
2018-Feb-14 17:30N 29°19' W 094°48'0 0.7
2018-Feb-14 16:48N 29°19' W 094°48'0 0.0
2018-Feb-14 16:20N 29°19' W 094°48'0 0.0
2018-Feb-14 15:58N 29°19' W 094°48'0 0.0
2018-Feb-14 15:29N 29°19' W 094°48'0 0.0
2018-Feb-14 14:58N 29°19' W 094°48'0 0.0
2018-Feb-14 14:30N 29°19' W 094°48'0 0.0
2018-Feb-14 13:40N 29°19' W 094°48'0 0.1
2018-Feb-14 13:19N 29°19' W 094°48'0 0.0
2018-Feb-14 13:00N 29°19' W 094°48'0 0.0
2018-Feb-14 12:09N 29°19' W 094°48'  

Dump ship's entire track history